^^
MeteoGriva-Weather Station Historical Data
Daily Summary for August 9, 2020 Units:  Both    English   Metric
Daily Weekly Monthly Yearly Custom
  High: Low: Average:
Temperature: 48.6 °F /  9.2 °C 44.4 °F /  6.9 °C 46 °F /  7.8 °C
Dew Point: 47.1 °F /  8.4 °C 43.3 °F /  6.3 °C 45 °F /  7.2 °C
Humidity: 99% 87.7% 96%
Wind Speed: 8.2mph /  13.2km/h - 1.7mph /  2.8km/h
Wind Gust: 17.4mph /  28km/h - -
Wind- - SW
Pressure: 29.9 in /  1011.2 hPa 29.6 in /  1002.7 hPa -
Precipitation: 0.08 in /  2.0 mm    
Historical Graphs
 
 
Tabular Data for August 9, 2020
Time Temperature Dew Point Pressure Wind Wind Speed Wind Gust Humidity Rainfall Rate (Hourly) solar
00:04 47.3 °F /  8.5 °C 47.1 °F /  8.4 °C 29.9in /  1011.2hPa Calm     99% 0in /  0.0mm 0 W/m2
00:09 47.1 °F /  8.4 °C 46.9 °F /  8.3 °C 29.9in /  1011.2hPa Calm     99% 0in /  0.0mm 0 W/m2
00:14 46.8 °F /  8.2 °C 46.6 °F /  8.1 °C 29.9in /  1011.2hPa Calm     99% 0in /  0.0mm 0 W/m2
00:19 46.6 °F /  8.1 °C 46.4 °F /  8 °C 29.9in /  1010.8hPa Calm     99% 0in /  0.0mm 0 W/m2
00:24 46.6 °F /  8.1 °C 46.4 °F /  8 °C 29.9in /  1011.2hPa Calm     99% 0in /  0.0mm 0 W/m2
00:29 46.6 °F /  8.1 °C 46.4 °F /  8 °C 29.9in /  1011.2hPa Calm     99% 0in /  0.0mm 0 W/m2
00:34 46.2 °F /  7.9 °C 46 °F /  7.8 °C 29.9in /  1011.2hPa Calm     99% 0in /  0.0mm 0 W/m2
00:39 46.2 °F /  7.9 °C 46 °F /  7.8 °C 29.9in /  1011.2hPa Calm     99% 0in /  0.0mm 0 W/m2
00:44 46.2 °F /  7.9 °C 46 °F /  7.8 °C 29.9in /  1011.2hPa Calm     99% 0in /  0.0mm 0 W/m2
00:49 46 °F /  7.8 °C 45.9 °F /  7.7 °C 29.9in /  1010.8hPa Calm     99% 0in /  0.0mm 0 W/m2
00:54 45.9 °F /  7.7 °C 45.9 °F /  7.7 °C 29.9in /  1010.8hPa Calm     99% 0in /  0.0mm 0 W/m2
00:59 45.9 °F /  7.7 °C 45.7 °F /  7.6 °C 29.9in /  1010.8hPa Calm     99% 0in /  0.0mm 0 W/m2
01:04 45.9 °F /  7.7 °C 45.7 °F /  7.6 °C 29.9in /  1010.8hPa Calm     99% 0in /  0.0mm 0 W/m2
01:09 45.7 °F /  7.6 °C 45.5 °F /  7.5 °C 29.9in /  1010.8hPa Calm     99% 0in /  0.0mm 0 W/m2
01:14 45 °F /  7.2 °C 44.8 °F /  7.1 °C 29.9in /  1010.8hPa Calm     99% 0in /  0.0mm 0 W/m2
01:19 44.8 °F /  7.1 °C 44.6 °F /  7 °C 29.9in /  1010.8hPa Calm     99% 0in /  0.0mm 0 W/m2
01:24 44.8 °F /  7.1 °C 44.6 °F /  7 °C 29.9in /  1010.8hPa Calm     99% 0in /  0.0mm 0 W/m2
01:29 45 °F /  7.2 °C 45 °F /  7.2 °C 29.8in /  1010.5hPa Calm     99% 0in /  0.0mm 0 W/m2
01:34 45.9 °F /  7.7 °C 45.9 °F /  7.7 °C 29.8in /  1010.5hPa Calm     99% 0in /  0.0mm 0 W/m2
01:39 46 °F /  7.8 °C 45.9 °F /  7.7 °C 29.8in /  1010.5hPa Calm     99% 0in /  0.0mm 0 W/m2
01:44 45.9 °F /  7.7 °C 45.9 °F /  7.7 °C 29.8in /  1010.5hPa Calm     99% 0in /  0.0mm 0 W/m2
01:49 45.9 °F /  7.7 °C 45.7 °F /  7.6 °C 29.8in /  1010.5hPa Calm     99% 0in /  0.0mm 0 W/m2
01:54 45.9 °F /  7.7 °C 45.7 °F /  7.6 °C 29.8in /  1010.2hPa Calm     99% 0in /  0.0mm 0 W/m2
01:59 45.7 °F /  7.6 °C 45.5 °F /  7.5 °C 29.8in /  1010.2hPa Calm     99% 0in /  0.0mm 0 W/m2
02:04 45.7 °F /  7.6 °C 45.5 °F /  7.5 °C 29.8in /  1010.2hPa Calm     99% 0in /  0.0mm 0 W/m2
02:09 45.5 °F /  7.5 °C 45.3 °F /  7.4 °C 29.8in /  1010.2hPa Calm     99% 0in /  0.0mm 0 W/m2
02:14 45.3 °F /  7.4 °C 45.1 °F /  7.3 °C 29.8in /  1010.2hPa Calm     99% 0in /  0.0mm 0 W/m2
02:19 45.1 °F /  7.3 °C 45 °F /  7.2 °C 29.8in /  1010.5hPa Calm     99% 0in /  0.0mm 0 W/m2
02:24 45.1 °F /  7.3 °C 45 °F /  7.2 °C 29.8in /  1010.2hPa Calm     99% 0in /  0.0mm 0 W/m2
02:29 45.1 °F /  7.3 °C 45.1 °F /  7.3 °C 29.8in /  1010.2hPa Calm     99% 0.07in /  1.8mm 0 W/m2
02:34 45.1 °F /  7.3 °C 45 °F /  7.2 °C 29.8in /  1010.5hPa Calm     99% 0.07in /  1.8mm 0 W/m2
02:39 45.1 °F /  7.3 °C 45 °F /  7.2 °C 29.8in /  1010.5hPa Calm     99% 0in /  0.0mm 0 W/m2
02:44 45.1 °F /  7.3 °C 45 °F /  7.2 °C 29.8in /  1010.2hPa Calm     99% 0in /  0.0mm 0 W/m2
02:49 45.1 °F /  7.3 °C 45 °F /  7.2 °C 29.8in /  1010.2hPa Calm     99% 0in /  0.0mm 0 W/m2
02:54 45.1 °F /  7.3 °C 45 °F /  7.2 °C 29.8in /  1010.2hPa Calm     99% 0.07in /  1.8mm 0 W/m2
02:59 45.1 °F /  7.3 °C 45 °F /  7.2 °C 29.8in /  1009.8hPa Calm     99% 0.07in /  1.8mm 0 W/m2
03:04 45.1 °F /  7.3 °C 45 °F /  7.2 °C 29.8in /  1009.5hPa Calm     99% 0.07in /  1.8mm 0 W/m2
03:09 45 °F /  7.2 °C 44.8 °F /  7.1 °C 29.8in /  1009.8hPa Calm     99% 0in /  0.0mm 0 W/m2
03:14 44.8 °F /  7.1 °C 44.6 °F /  7 °C 29.8in /  1009.5hPa Calm     99% 0in /  0.0mm 0 W/m2
03:19 44.4 °F /  6.9 °C 44.2 °F /  6.8 °C 29.8in /  1009.8hPa Calm     99% 0in /  0.0mm 0 W/m2
03:24 44.4 °F /  6.9 °C 44.2 °F /  6.8 °C 29.8in /  1009.5hPa Calm     99% 0in /  0.0mm 0 W/m2
03:29 44.4 °F /  6.9 °C 44.2 °F /  6.8 °C 29.8in /  1009.5hPa Calm     99% 0.07in /  1.8mm 0 W/m2
03:34 44.6 °F /  7 °C 44.2 °F /  6.8 °C 29.8in /  1009.5hPa Calm     99% 0.07in /  1.8mm 0 W/m2
03:39 44.4 °F /  6.9 °C 44.2 °F /  6.8 °C 29.8in /  1009.1hPa Calm     99% 0in /  0.0mm 0 W/m2
03:44 44.4 °F /  6.9 °C 44.2 °F /  6.8 °C 29.8in /  1009.1hPa Calm     99% 0in /  0.0mm 0 W/m2
03:49 44.4 °F /  6.9 °C 44.2 °F /  6.8 °C 29.8in /  1009.1hPa Calm     99% 0in /  0.0mm 0 W/m2
03:54 44.4 °F /  6.9 °C 44.2 °F /  6.8 °C 29.8in /  1009.1hPa Calm     99% 0in /  0.0mm 0 W/m2
03:59 44.4 °F /  6.9 °C 44.2 °F /  6.8 °C 29.8in /  1009.1hPa Calm     99% 0in /  0.0mm 0 W/m2
04:04 44.4 °F /  6.9 °C 44.2 °F /  6.8 °C 29.8in /  1009.1hPa Calm     99% 0.07in /  1.8mm 0 W/m2
04:09 44.4 °F /  6.9 °C 44.2 °F /  6.8 °C 29.8in /  1009.1hPa Calm     99% 0.07in /  1.8mm 0 W/m2
04:14 44.6 °F /  7 °C 44.4 °F /  6.9 °C 29.8in /  1009.1hPa Calm     99% 0in /  0.0mm 0 W/m2
04:19 44.8 °F /  7.1 °C 44.6 °F /  7 °C 29.8in /  1009.1hPa Calm     99% 0in /  0.0mm 0 W/m2
04:24 44.6 °F /  7 °C 44.4 °F /  6.9 °C 29.8in /  1009.1hPa Calm     99% 0in /  0.0mm 0 W/m2
04:29 44.6 °F /  7 °C 44.4 °F /  6.9 °C 29.8in /  1009.1hPa Calm   2.5mph /  4km/h 99% 0.07in /  1.8mm 0 W/m2
04:34 44.6 °F /  7 °C 44.4 °F /  6.9 °C 29.8in /  1009.1hPa Calm   2.5mph /  4km/h 99% 0.07in /  1.8mm 0 W/m2
04:39 44.8 °F /  7.1 °C 44.6 °F /  7 °C 29.8in /  1009.1hPa Calm   2.5mph /  4km/h 99% 0in /  0.0mm 0 W/m2
04:44 44.8 °F /  7.1 °C 44.6 °F /  7 °C 29.8in /  1009.1hPa Calm   2.5mph /  4km/h 99% 0in /  0.0mm 0 W/m2
04:49 44.8 °F /  7.1 °C 44.6 °F /  7 °C 29.8in /  1009.1hPa North 0.2mph /  0.3km/h 4.9mph /  7.9km/h 99% 0in /  0.0mm 0 W/m2
04:54 45.1 °F /  7.3 °C 45 °F /  7.2 °C 29.8in /  1009.1hPa NE 0.2mph /  0.3km/h 4.9mph /  7.9km/h 99% 0in /  0.0mm 0 W/m2
04:59 45.3 °F /  7.4 °C 45.1 °F /  7.3 °C 29.8in /  1009.1hPa Calm     99% 0in /  0.0mm 0 W/m2
05:04 45.3 °F /  7.4 °C 45.1 °F /  7.3 °C 29.8in /  1009.1hPa NNE 1.2mph /  2km/h 7.6mph /  12.2km/h 99% 0in /  0.0mm 0 W/m2
05:09 45.3 °F /  7.4 °C 45.1 °F /  7.3 °C 29.8in /  1009.1hPa NNW 0.2mph /  0.3km/h 7.6mph /  12.2km/h 99% 0in /  0.0mm 0 W/m2
05:14 45.3 °F /  7.4 °C 45.1 °F /  7.3 °C 29.8in /  1008.8hPa North 1.1mph /  1.7km/h 7.6mph /  12.2km/h 99% 0in /  0.0mm 0 W/m2
05:19 45.3 °F /  7.4 °C 45.1 °F /  7.3 °C 29.8in /  1008.8hPa NNE 0.4mph /  0.6km/h 4.9mph /  7.9km/h 99% 0in /  0.0mm 0 W/m2
05:24 45.1 °F /  7.3 °C 45 °F /  7.2 °C 29.8in /  1008.8hPa NNW 0.1mph /  0.1km/h 2.5mph /  4km/h 99% 0in /  0.0mm 0 W/m2
05:29 45.1 °F /  7.3 °C 45 °F /  7.2 °C 29.8in /  1008.5hPa North 1.4mph /  2.2km/h 10.1mph /  16.3km/h 99% 0in /  0.0mm 0 W/m2
05:34 45.1 °F /  7.3 °C 45 °F /  7.2 °C 29.8in /  1008.8hPa North 1.6mph /  2.6km/h 10.1mph /  16.3km/h 99% 0in /  0.0mm 0 W/m2
05:39 45.3 °F /  7.4 °C 45.1 °F /  7.3 °C 29.8in /  1008.8hPa North 1.1mph /  1.8km/h 4.9mph /  7.9km/h 99% 0in /  0.0mm 0 W/m2
05:44 45.3 °F /  7.4 °C 45.1 °F /  7.3 °C 29.8in /  1008.8hPa NNW 0.4mph /  0.6km/h 4.9mph /  7.9km/h 99% 0in /  0.0mm 0 W/m2
05:49 45.3 °F /  7.4 °C 45.1 °F /  7.3 °C 29.8in /  1008.8hPa Calm     99% 0in /  0.0mm 0 W/m2
05:54 45.5 °F /  7.5 °C 45.3 °F /  7.4 °C 29.8in /  1008.8hPa NNW 0.4mph /  0.7km/h 4.9mph /  7.9km/h 99% 0in /  0.0mm 0 W/m2
05:59 45.7 °F /  7.6 °C 45.5 °F /  7.5 °C 29.8in /  1008.8hPa NNE 0.2mph /  0.4km/h 4.9mph /  7.9km/h 99% 0in /  0.0mm 0 W/m2
06:04 45.7 °F /  7.6 °C 45.5 °F /  7.5 °C 29.8in /  1008.8hPa Calm   2.5mph /  4km/h 99% 0in /  0.0mm 0 W/m2
06:09 45.7 °F /  7.6 °C 45.5 °F /  7.5 °C 29.8in /  1008.8hPa North 0.9mph /  1.5km/h 7.6mph /  12.2km/h 99% 0in /  0.0mm 0 W/m2
06:14 45.7 °F /  7.6 °C 45.5 °F /  7.5 °C 29.8in /  1008.8hPa Calm   2.5mph /  4km/h 99% 0in /  0.0mm 0 W/m2
06:19 45.7 °F /  7.6 °C 45.5 °F /  7.5 °C 29.8in /  1008.5hPa Calm     99% 0in /  0.0mm 0 W/m2
06:24 45.7 °F /  7.6 °C 45.5 °F /  7.5 °C 29.8in /  1008.5hPa NNW 0.7mph /  1.1km/h 4.9mph /  7.9km/h 99% 0in /  0.0mm 0 W/m2
06:29 45.7 °F /  7.6 °C 45.5 °F /  7.5 °C 29.8in /  1008.5hPa Calm   4.9mph /  7.9km/h 99% 0in /  0.0mm 0 W/m2
06:34 45.7 °F /  7.6 °C 45.5 °F /  7.5 °C 29.8in /  1008.5hPa NNW 0.7mph /  1.2km/h 7.6mph /  12.2km/h 99% 0in /  0.0mm 0 W/m2
06:39 45.9 °F /  7.7 °C 45.7 °F /  7.6 °C 29.8in /  1008.5hPa NNW 0.5mph /  0.8km/h 7.6mph /  12.2km/h 99% 0in /  0.0mm 0 W/m2
06:44 45.7 °F /  7.6 °C 45.5 °F /  7.5 °C 29.8in /  1008.1hPa Calm     99% 0in /  0.0mm 0 W/m2
06:49 45.7 °F /  7.6 °C 45.5 °F /  7.5 °C 29.8in /  1008.1hPa Calm     99% 0in /  0.0mm 0 W/m2
06:54 45.7 °F /  7.6 °C 45.5 °F /  7.5 °C 29.8in /  1008.1hPa Calm     99% 0in /  0.0mm 0 W/m2
06:59 45.5 °F /  7.5 °C 45.3 °F /  7.4 °C 29.8in /  1008.1hPa Calm     99% 0in /  0.0mm 0 W/m2
07:04 45.5 °F /  7.5 °C 45.3 °F /  7.4 °C 29.8in /  1008.1hPa Calm     99% 0in /  0.0mm 0 W/m2
07:09 45.5 °F /  7.5 °C 45.3 °F /  7.4 °C 29.8in /  1008.5hPa Calm     99% 0in /  0.0mm 0 W/m2
07:14 45.3 °F /  7.4 °C 45.1 °F /  7.3 °C 29.8in /  1008.1hPa Calm     99% 0in /  0.0mm 0 W/m2
07:19 45.3 °F /  7.4 °C 45.1 °F /  7.3 °C 29.8in /  1008.5hPa Calm     99% 0in /  0.0mm 0 W/m2
07:24 45.3 °F /  7.4 °C 45.1 °F /  7.3 °C 29.8in /  1008.1hPa Calm     99% 0in /  0.0mm 3 W/m2
07:29 45.3 °F /  7.4 °C 45.1 °F /  7.3 °C 29.8in /  1008.1hPa Calm     99% 0in /  0.0mm 5 W/m2
07:34 45.3 °F /  7.4 °C 45.1 °F /  7.3 °C 29.8in /  1007.8hPa Calm     99% 0in /  0.0mm 7 W/m2
07:39 45 °F /  7.2 °C 44.8 °F /  7.1 °C 29.8in /  1007.8hPa Calm     99% 0in /  0.0mm 10 W/m2
07:44 45 °F /  7.2 °C 44.8 °F /  7.1 °C 29.8in /  1007.8hPa Calm     99% 0in /  0.0mm 12 W/m2
07:49 45 °F /  7.2 °C 44.8 °F /  7.1 °C 29.8in /  1007.8hPa Calm     99% 0in /  0.0mm 13 W/m2
07:54 44.8 °F /  7.1 °C 44.6 °F /  7 °C 29.8in /  1008.1hPa Calm     99% 0in /  0.0mm 17 W/m2
07:59 44.8 °F /  7.1 °C 44.6 °F /  7 °C 29.8in /  1008.1hPa Calm     99% 0in /  0.0mm 19 W/m2
08:04 44.8 °F /  7.1 °C 44.6 °F /  7 °C 29.8in /  1008.1hPa Calm     99% 0in /  0.0mm 19 W/m2
08:09 44.8 °F /  7.1 °C 44.6 °F /  7 °C 29.8in /  1008.1hPa Calm     99% 0in /  0.0mm 23 W/m2
08:14 44.8 °F /  7.1 °C 44.6 °F /  7 °C 29.8in /  1008.1hPa Calm     99% 0in /  0.0mm 27 W/m2
08:19 45 °F /  7.2 °C 44.8 °F /  7.1 °C 29.8in /  1007.8hPa Calm     99% 0in /  0.0mm 30 W/m2
08:24 45 °F /  7.2 °C 44.8 °F /  7.1 °C 29.8in /  1007.8hPa Calm     99% 0in /  0.0mm 36 W/m2
08:29 45 °F /  7.2 °C 44.8 °F /  7.1 °C 29.8in /  1007.8hPa Calm     99% 0in /  0.0mm 36 W/m2
08:34 45 °F /  7.2 °C 44.8 °F /  7.1 °C 29.8in /  1008.1hPa Calm     99% 0in /  0.0mm 33 W/m2
08:39 45.1 °F /  7.3 °C 45 °F /  7.2 °C 29.8in /  1007.8hPa Calm     99% 0in /  0.0mm 37 W/m2
08:44 45.1 °F /  7.3 °C 45 °F /  7.2 °C 29.8in /  1008.1hPa Calm     99% 0in /  0.0mm 37 W/m2
08:49 45.1 °F /  7.3 °C 45 °F /  7.2 °C 29.8in /  1008.1hPa Calm     99% 0in /  0.0mm 39 W/m2
08:54 45.3 °F /  7.4 °C 45.1 °F /  7.3 °C 29.8in /  1008.1hPa Calm     99% 0in /  0.0mm 40 W/m2
08:59 46 °F /  7.8 °C 45.9 °F /  7.7 °C 29.8in /  1008.1hPa Calm     99% 0in /  0.0mm 40 W/m2
09:04 45.9 °F /  7.7 °C 45.7 °F /  7.6 °C 29.8in /  1008.1hPa Calm     99% 0in /  0.0mm 39 W/m2
09:09 46 °F /  7.8 °C 45.9 °F /  7.7 °C 29.8in /  1008.1hPa Calm     99% 0in /  0.0mm 39 W/m2
09:14 46 °F /  7.8 °C 45.9 °F /  7.7 °C 29.8in /  1007.8hPa North 1mph /  1.6km/h 4.9mph /  7.9km/h 99% 0in /  0.0mm 41 W/m2
09:19 46.2 °F /  7.9 °C 46 °F /  7.8 °C 29.8in /  1007.8hPa NW 1.5mph /  2.4km/h 4.9mph /  7.9km/h 99% 0in /  0.0mm 46 W/m2
09:24 46.2 °F /  7.9 °C 46 °F /  7.8 °C 29.8in /  1007.5hPa North 3.5mph /  5.6km/h 7.6mph /  12.2km/h 99% 0in /  0.0mm 55 W/m2
09:29 46.2 °F /  7.9 °C 45.5 °F /  7.5 °C 29.7in /  1007.1hPa NNW 4.8mph /  7.7km/h 15mph /  24.1km/h 97% 0in /  0.0mm 63 W/m2
09:34 46.2 °F /  7.9 °C 45.7 °F /  7.6 °C 29.8in /  1007.5hPa NNW 1.5mph /  2.4km/h 10.1mph /  16.3km/h 98.1% 0in /  0.0mm 63 W/m2
09:39 46.6 °F /  8.1 °C 45.9 °F /  7.7 °C 29.7in /  1007.1hPa North 1.8mph /  2.9km/h 4.9mph /  7.9km/h 97.4% 0in /  0.0mm 63 W/m2
09:44 46.6 °F /  8.1 °C 45 °F /  7.2 °C 29.7in /  1007.1hPa North 1.9mph /  3km/h 4.9mph /  7.9km/h 94.3% 0in /  0.0mm 65 W/m2
09:49 46.6 °F /  8.1 °C 44.4 °F /  6.9 °C 29.7in /  1007.1hPa North 2.5mph /  4km/h 7.6mph /  12.2km/h 92.1% 0in /  0.0mm 73 W/m2
09:54 46.8 °F /  8.2 °C 44.6 °F /  7 °C 29.8in /  1007.5hPa NNW 1.3mph /  2.1km/h 10.1mph /  16.3km/h 92% 0in /  0.0mm 76 W/m2
09:59 47.3 °F /  8.5 °C 44.8 °F /  7.1 °C 29.8in /  1007.5hPa North 3.2mph /  5.2km/h 10.1mph /  16.3km/h 91.1% 0in /  0.0mm 75 W/m2
10:04 47.5 °F /  8.6 °C 44.8 °F /  7.1 °C 29.8in /  1007.5hPa NNW 6.3mph /  10.2km/h 12.5mph /  20.1km/h 89.9% 0in /  0.0mm 80 W/m2
10:09 47.5 °F /  8.6 °C 44.8 °F /  7.1 °C 29.7in /  1007.1hPa NW 3.4mph /  5.4km/h 10.1mph /  16.3km/h 90.3% 0in /  0.0mm 86 W/m2
10:14 47.5 °F /  8.6 °C 44.6 °F /  7 °C 29.7in /  1007.1hPa North 4mph /  6.4km/h 12.5mph /  20.1km/h 89.6% 0in /  0.0mm 98 W/m2
10:19 48 °F /  8.9 °C 45 °F /  7.2 °C 29.7in /  1007.1hPa NNW 4.5mph /  7.2km/h 15mph /  24.1km/h 89% 0in /  0.0mm 103 W/m2
10:24 48 °F /  8.9 °C 44.8 °F /  7.1 °C 29.7in /  1006.8hPa NNW 5mph /  8km/h 15mph /  24.1km/h 88.6% 0in /  0.0mm 99 W/m2
10:29 48 °F /  8.9 °C 45 °F /  7.2 °C 29.7in /  1006.8hPa North 3.4mph /  5.4km/h 12.5mph /  20.1km/h 88.8% 0in /  0.0mm 100 W/m2
10:34 48 °F /  8.9 °C 45 °F /  7.2 °C 29.7in /  1006.4hPa NNW 3.6mph /  5.8km/h 12.5mph /  20.1km/h 89% 0in /  0.0mm 103 W/m2
10:39 48.4 °F /  9.1 °C 45.1 °F /  7.3 °C 29.7in /  1006.4hPa NNW 3.9mph /  6.2km/h 12.5mph /  20.1km/h 88.7% 0in /  0.0mm 96 W/m2
10:44 48.4 °F /  9.1 °C 45 °F /  7.2 °C 29.7in /  1006.4hPa North 3.4mph /  5.4km/h 10.1mph /  16.3km/h 88.1% 0in /  0.0mm 96 W/m2
10:49 48.4 °F /  9.1 °C 45 °F /  7.2 °C 29.7in /  1006.4hPa NNW 2.5mph /  4.1km/h 10.1mph /  16.3km/h 87.8% 0in /  0.0mm 92 W/m2
10:54 48.4 °F /  9.1 °C 45 °F /  7.2 °C 29.7in /  1006.4hPa NNE 0.7mph /  1.2km/h 4.9mph /  7.9km/h 87.7% 0in /  0.0mm 94 W/m2
10:59 48.6 °F /  9.2 °C 45.1 °F /  7.3 °C 29.7in /  1006.8hPa North 0.3mph /  0.5km/h 4.9mph /  7.9km/h 88% 0in /  0.0mm 95 W/m2
11:04 48.6 °F /  9.2 °C 45.3 °F /  7.4 °C 29.7in /  1006.8hPa Calm   4.9mph /  7.9km/h 88.6% 0in /  0.0mm 100 W/m2
11:09 48.4 °F /  9.1 °C 45.3 °F /  7.4 °C 29.7in /  1006.8hPa North 1.2mph /  1.9km/h 7.6mph /  12.2km/h 89% 0in /  0.0mm 99 W/m2
11:14 48.4 °F /  9.1 °C 45.3 °F /  7.4 °C 29.7in /  1006.4hPa ENE 1.6mph /  2.6km/h 10.1mph /  16.3km/h 88.8% 0in /  0.0mm 91 W/m2
11:19 48 °F /  8.9 °C 45.9 °F /  7.7 °C 29.7in /  1006.8hPa East 0.2mph /  0.4km/h 4.9mph /  7.9km/h 92% 0in /  0.0mm 98 W/m2
11:24 48 °F /  8.9 °C 45.9 °F /  7.7 °C 29.7in /  1006.4hPa East 0.3mph /  0.5km/h 4.9mph /  7.9km/h 92.6% 0in /  0.0mm 98 W/m2
11:29 47.8 °F /  8.8 °C 46 °F /  7.8 °C 29.7in /  1006.8hPa Calm   4.9mph /  7.9km/h 93.4% 0in /  0.0mm 95 W/m2
11:34 47.8 °F /  8.8 °C 46.2 °F /  7.9 °C 29.7in /  1006.8hPa South 0.1mph /  0.2km/h 2.5mph /  4km/h 94.4% 0in /  0.0mm 92 W/m2
11:39 47.7 °F /  8.7 °C 45.9 °F /  7.7 °C 29.7in /  1006.4hPa NE 0.8mph /  1.3km/h 4.9mph /  7.9km/h 93.2% 0in /  0.0mm 91 W/m2
11:44 47.7 °F /  8.7 °C 45.9 °F /  7.7 °C 29.7in /  1006.4hPa ENE 0.2mph /  0.4km/h 4.9mph /  7.9km/h 93.6% 0in /  0.0mm 93 W/m2
11:46 47.7 °F /  8.7 °C 46.2 °F /  7.9 °C 29.7in /  1006.4hPa ENE 0.3mph /  0.5km/h 2.5mph /  4km/h 94.7% 0in /  0.0mm 96 W/m2
11:54 47.5 °F /  8.6 °C 46.4 °F /  8 °C 29.7in /  1006.1hPa ESE 0.7mph /  1.2km/h 4.9mph /  7.9km/h 96% 0in /  0.0mm 103 W/m2
11:59 46.9 °F /  8.3 °C 46 °F /  7.8 °C 29.7in /  1006.1hPa NW 0.2mph /  0.3km/h 10.1mph /  16.3km/h 96% 0in /  0.0mm 105 W/m2
12:04 46.9 °F /  8.3 °C 45.5 °F /  7.5 °C 29.7in /  1006.1hPa NNE 0.2mph /  0.4km/h 10.1mph /  16.3km/h 95% 0in /  0.0mm 110 W/m2
12:09 46.9 °F /  8.3 °C 45.3 °F /  7.4 °C 29.7in /  1006.4hPa Calm   4.9mph /  7.9km/h 94.1% 0in /  0.0mm 109 W/m2
12:14 47.1 °F /  8.4 °C 45.1 °F /  7.3 °C 29.7in /  1006.1hPa NE 0.8mph /  1.3km/h 7.6mph /  12.2km/h 92.8% 0in /  0.0mm 100 W/m2
12:19 47.5 °F /  8.6 °C 45.5 °F /  7.5 °C 29.7in /  1006.4hPa NNE 1.2mph /  1.9km/h 7.6mph /  12.2km/h 92.6% 0in /  0.0mm 104 W/m2
12:24 47.5 °F /  8.6 °C 45.9 °F /  7.7 °C 29.7in /  1006.4hPa North 4.5mph /  7.3km/h 10.1mph /  16.3km/h 93.8% 0in /  0.0mm 106 W/m2
12:29 47.5 °F /  8.6 °C 45.7 °F /  7.6 °C 29.7in /  1006.1hPa North 5mph /  8km/h 12.5mph /  20.1km/h 93.6% 0in /  0.0mm 113 W/m2
12:34 47.5 °F /  8.6 °C 45.5 °F /  7.5 °C 29.7in /  1006.1hPa North 6.3mph /  10.2km/h 15mph /  24.1km/h 93.1% 0in /  0.0mm 113 W/m2
12:39 47.1 °F /  8.4 °C 45.1 °F /  7.3 °C 29.7in /  1006.4hPa NNW 5.7mph /  9.2km/h 15mph /  24.1km/h 92.7% 0in /  0.0mm 107 W/m2
12:44 47.1 °F /  8.4 °C 45.1 °F /  7.3 °C 29.7in /  1006.1hPa North 4.5mph /  7.2km/h 12.5mph /  20.1km/h 92.7% 0in /  0.0mm 102 W/m2
12:49 47.1 °F /  8.4 °C 44.8 °F /  7.1 °C 29.7in /  1006.1hPa North 7.9mph /  12.7km/h 17.4mph /  28km/h 91.6% 0in /  0.0mm 98 W/m2
12:54 47.1 °F /  8.4 °C 44.6 °F /  7 °C 29.7in /  1006.1hPa NNW 5.3mph /  8.5km/h 15mph /  24.1km/h 91% 0in /  0.0mm 98 W/m2
12:59 47.1 °F /  8.4 °C 44.6 °F /  7 °C 29.7in /  1006.1hPa NNE 7.3mph /  11.8km/h 15mph /  24.1km/h 90.8% 0in /  0.0mm 98 W/m2
13:04 47.1 °F /  8.4 °C 44.4 °F /  6.9 °C 29.7in /  1006.1hPa North 6.4mph /  10.3km/h 15mph /  24.1km/h 90.6% 0in /  0.0mm 97 W/m2
13:09 46.9 °F /  8.3 °C 44.2 °F /  6.8 °C 29.7in /  1006.1hPa NNE 5.1mph /  8.2km/h 12.5mph /  20.1km/h 90.1% 0in /  0.0mm 96 W/m2
13:14 46.9 °F /  8.3 °C 44.4 °F /  6.9 °C 29.7in /  1006.1hPa North 4.2mph /  6.7km/h 7.6mph /  12.2km/h 90.6% 0in /  0.0mm 94 W/m2
13:19 47.1 °F /  8.4 °C 44.6 °F /  7 °C 29.7in /  1006.1hPa North 5.6mph /  9km/h 12.5mph /  20.1km/h 91% 0in /  0.0mm 91 W/m2
13:24 47.1 °F /  8.4 °C 44.4 °F /  6.9 °C 29.7in /  1006.1hPa North 5.5mph /  8.9km/h 15mph /  24.1km/h 90.7% 0in /  0.0mm 86 W/m2
13:29 47.1 °F /  8.4 °C 44.4 °F /  6.9 °C 29.7in /  1005.8hPa North 5.1mph /  8.2km/h 12.5mph /  20.1km/h 90% 0in /  0.0mm 105 W/m2
13:34 47.1 °F /  8.4 °C 44.4 °F /  6.9 °C 29.7in /  1005.8hPa North 6.7mph /  10.8km/h 12.5mph /  20.1km/h 90% 0in /  0.0mm 105 W/m2
13:39 47.1 °F /  8.4 °C 44.4 °F /  6.9 °C 29.7in /  1005.4hPa North 7.8mph /  12.6km/h 15mph /  24.1km/h 90% 0in /  0.0mm 103 W/m2
13:44 47.1 °F /  8.4 °C 44.4 °F /  6.9 °C 29.7in /  1005.4hPa North 5.9mph /  9.5km/h 12.5mph /  20.1km/h 90% 0in /  0.0mm 107 W/m2
13:49 47.1 °F /  8.4 °C 44.4 °F /  6.9 °C 29.7in /  1005.4hPa North 5.3mph /  8.6km/h 15mph /  24.1km/h 90% 0in /  0.0mm 96 W/m2
13:54 47.1 °F /  8.4 °C 44.4 °F /  6.9 °C 29.7in /  1005.8hPa North 6.2mph /  10km/h 12.5mph /  20.1km/h 90% 0in /  0.0mm 103 W/m2
13:59 47.1 °F /  8.4 °C 44.4 °F /  6.9 °C 29.7in /  1005.4hPa NNW 7.7mph /  12.4km/h 15mph /  24.1km/h 90% 0in /  0.0mm 103 W/m2
14:04 47.1 °F /  8.4 °C 44.4 °F /  6.9 °C 29.7in /  1005.4hPa NNW 5.3mph /  8.5km/h 15mph /  24.1km/h 90% 0in /  0.0mm 96 W/m2
14:09 46.9 °F /  8.3 °C 44.2 °F /  6.8 °C 29.7in /  1005.1hPa North 6.3mph /  10.2km/h 12.5mph /  20.1km/h 90.4% 0in /  0.0mm 95 W/m2
14:14 46.9 °F /  8.3 °C 44.4 °F /  6.9 °C 29.7in /  1005.1hPa North 5.7mph /  9.2km/h 10.1mph /  16.3km/h 91% 0in /  0.0mm 91 W/m2
14:19 46.8 °F /  8.2 °C 44.2 °F /  6.8 °C 29.7in /  1005.4hPa North 6.2mph /  10km/h 15mph /  24.1km/h 91% 0in /  0.0mm 86 W/m2
14:24 46.4 °F /  8 °C 44.1 °F /  6.7 °C 29.7in /  1005.1hPa North 4.8mph /  7.8km/h 10.1mph /  16.3km/h 91.3% 0in /  0.0mm 87 W/m2
14:29 46.4 °F /  8 °C 44.2 °F /  6.8 °C 29.7in /  1004.7hPa North 4.9mph /  7.9km/h 12.5mph /  20.1km/h 92% 0in /  0.0mm 93 W/m2
14:34 46.4 °F /  8 °C 44.2 °F /  6.8 °C 29.7in /  1004.7hPa North 6.9mph /  11.1km/h 15mph /  24.1km/h 92% 0in /  0.0mm 92 W/m2
14:39 46.4 °F /  8 °C 44.2 °F /  6.8 °C 29.7in /  1004.7hPa North 7mph /  11.2km/h 12.5mph /  20.1km/h 92% 0in /  0.0mm 84 W/m2
14:44 46.2 °F /  7.9 °C 43.9 °F /  6.6 °C 29.7in /  1004.7hPa North 5.2mph /  8.3km/h 12.5mph /  20.1km/h 91.7% 0in /  0.0mm 80 W/m2
14:49 46.2 °F /  7.9 °C 44.1 °F /  6.7 °C 29.7in /  1004.7hPa North 6.8mph /  10.9km/h 12.5mph /  20.1km/h 92% 0in /  0.0mm 71 W/m2
14:54 46.2 °F /  7.9 °C 44.1 °F /  6.7 °C 29.7in /  1004.7hPa North 6.2mph /  10km/h 12.5mph /  20.1km/h 92% 0in /  0.0mm 65 W/m2
14:59 46.2 °F /  7.9 °C 44.1 °F /  6.7 °C 29.7in /  1004.7hPa North 5.7mph /  9.2km/h 15mph /  24.1km/h 92% 0in /  0.0mm 62 W/m2
15:04 46 °F /  7.8 °C 44.1 °F /  6.7 °C 29.7in /  1004.7hPa North 6.2mph /  10km/h 12.5mph /  20.1km/h 92% 0in /  0.0mm 68 W/m2
15:09 46 °F /  7.8 °C 44.1 °F /  6.7 °C 29.7in /  1004.7hPa North 7.1mph /  11.4km/h 15mph /  24.1km/h 92.9% 0in /  0.0mm 72 W/m2
15:14 46 °F /  7.8 °C 44.4 °F /  6.9 °C 29.7in /  1004.7hPa NNW 6.1mph /  9.8km/h 12.5mph /  20.1km/h 93.8% 0in /  0.0mm 71 W/m2
15:19 45.9 °F /  7.7 °C 44.6 °F /  7 °C 29.7in /  1004.4hPa North 7mph /  11.2km/h 12.5mph /  20.1km/h 95% 0in /  0.0mm 76 W/m2
15:24 45.7 °F /  7.6 °C 44.6 °F /  7 °C 29.7in /  1004.4hPa North 8.2mph /  13.2km/h 15mph /  24.1km/h 96.1% 0in /  0.0mm 73 W/m2
15:29 45.7 °F /  7.6 °C 45 °F /  7.2 °C 29.7in /  1004.4hPa North 6.5mph /  10.4km/h 15mph /  24.1km/h 97% 0in /  0.0mm 52 W/m2
15:34 45.7 °F /  7.6 °C 45 °F /  7.2 °C 29.7in /  1004.1hPa North 6.9mph /  11.1km/h 15mph /  24.1km/h 96.9% 0in /  0.0mm 53 W/m2
15:39 45.5 °F /  7.5 °C 44.4 °F /  6.9 °C 29.7in /  1004.4hPa North 5.8mph /  9.3km/h 12.5mph /  20.1km/h 96.1% 0in /  0.0mm 49 W/m2
15:44 45.7 °F /  7.6 °C 44.4 °F /  6.9 °C 29.7in /  1004.4hPa North 6.3mph /  10.2km/h 15mph /  24.1km/h 95.3% 0in /  0.0mm 47 W/m2
15:49 45.7 °F /  7.6 °C 44.1 °F /  6.7 °C 29.7in /  1004.4hPa NNW 4.8mph /  7.8km/h 12.5mph /  20.1km/h 94% 0in /  0.0mm 45 W/m2
15:54 45.7 °F /  7.6 °C 44.1 °F /  6.7 °C 29.7in /  1004.1hPa NNW 3.9mph /  6.3km/h 7.6mph /  12.2km/h 94% 0in /  0.0mm 45 W/m2
15:59 45.9 °F /  7.7 °C 44.2 °F /  6.8 °C 29.7in /  1004.4hPa North 1.2mph /  1.9km/h 7.6mph /  12.2km/h 94% 0in /  0.0mm 46 W/m2
16:04 46 °F /  7.8 °C 44.4 °F /  6.9 °C 29.7in /  1004.4hPa North 3mph /  4.8km/h 10.1mph /  16.3km/h 94% 0in /  0.0mm 49 W/m2
16:09 46 °F /  7.8 °C 44.4 °F /  6.9 °C 29.7in /  1004.4hPa NNW 1.4mph /  2.2km/h 7.6mph /  12.2km/h 94% 0in /  0.0mm 53 W/m2
16:14 46 °F /  7.8 °C 44.4 °F /  6.9 °C 29.7in /  1004.4hPa NNW 3.9mph /  6.2km/h 10.1mph /  16.3km/h 94% 0in /  0.0mm 61 W/m2
16:19 46 °F /  7.8 °C 44.2 °F /  6.8 °C 29.7in /  1004.1hPa North 1.3mph /  2.1km/h 7.6mph /  12.2km/h 93.4% 0in /  0.0mm 65 W/m2
16:24 46.4 °F /  8 °C 44.4 °F /  6.9 °C 29.7in /  1004.1hPa Calm   4.9mph /  7.9km/h 93% 0in /  0.0mm 64 W/m2
16:29 46.4 °F /  8 °C 44.4 °F /  6.9 °C 29.7in /  1004.1hPa NNW 0.3mph /  0.5km/h 7.6mph /  12.2km/h 93% 0in /  0.0mm 67 W/m2
16:34 46.4 °F /  8 °C 44.8 °F /  7.1 °C 29.7in /  1004.1hPa NNE 0.6mph /  1km/h 4.9mph /  7.9km/h 93.8% 0in /  0.0mm 73 W/m2
16:39 46.6 °F /  8.1 °C 44.8 °F /  7.1 °C 29.7in /  1004.1hPa North 1.5mph /  2.4km/h 7.6mph /  12.2km/h 93.5% 0in /  0.0mm 73 W/m2
16:44 46.8 °F /  8.2 °C 44.8 °F /  7.1 °C 29.7in /  1004.1hPa NNE 2.6mph /  4.2km/h 7.6mph /  12.2km/h 93% 0in /  0.0mm 65 W/m2
16:49 46.8 °F /  8.2 °C 45 °F /  7.2 °C 29.6in /  1003.7hPa NNW 0.7mph /  1.1km/h 7.6mph /  12.2km/h 93.8% 0in /  0.0mm 45 W/m2
16:54 46.6 °F /  8.1 °C 45.1 °F /  7.3 °C 29.7in /  1004.1hPa North 0.5mph /  0.8km/h 7.6mph /  12.2km/h 94.8% 0in /  0.0mm 39 W/m2
16:59 46.6 °F /  8.1 °C 45.1 °F /  7.3 °C 29.6in /  1003.7hPa NNE 1.1mph /  1.8km/h 4.9mph /  7.9km/h 95.2% 0in /  0.0mm 48 W/m2
17:04 46 °F /  7.8 °C 44.6 °F /  7 °C 29.6in /  1003.7hPa North 2.2mph /  3.6km/h 7.6mph /  12.2km/h 95.1% 0in /  0.0mm 51 W/m2
17:09 46 °F /  7.8 °C 44.8 °F /  7.1 °C 29.7in /  1004.1hPa North 3.7mph /  5.9km/h 7.6mph /  12.2km/h 95.7% 0in /  0.0mm 51 W/m2
17:14 46 °F /  7.8 °C 45 °F /  7.2 °C 29.7in /  1004.1hPa NNE 0.2mph /  0.4km/h 7.6mph /  12.2km/h 96% 0in /  0.0mm 45 W/m2
17:19 46 °F /  7.8 °C 45 °F /  7.2 °C 29.7in /  1004.1hPa NNE 1.1mph /  1.8km/h 7.6mph /  12.2km/h 96% 0in /  0.0mm 39 W/m2
17:24 45.9 °F /  7.7 °C 44.8 °F /  7.1 °C 29.7in /  1004.1hPa North 0.4mph /  0.6km/h 7.6mph /  12.2km/h 96% 0in /  0.0mm 36 W/m2
17:29 45.9 °F /  7.7 °C 44.8 °F /  7.1 °C 29.7in /  1004.1hPa NE 0.1mph /  0.1km/h 4.9mph /  7.9km/h 96% 0in /  0.0mm 32 W/m2
17:34 45.9 °F /  7.7 °C 44.8 °F /  7.1 °C 29.7in /  1004.1hPa Calm     96.2% 0in /  0.0mm 24 W/m2
17:39 45.9 °F /  7.7 °C 44.4 °F /  6.9 °C 29.7in /  1004.1hPa NNE 1.8mph /  2.9km/h 10.1mph /  16.3km/h 95% 0in /  0.0mm 20 W/m2
17:44 46.4 °F /  8 °C 44.6 °F /  7 °C 29.6in /  1003.7hPa North 3.7mph /  5.9km/h 10.1mph /  16.3km/h 93.5% 0in /  0.0mm 18 W/m2
17:49 46.4 °F /  8 °C 44.2 °F /  6.8 °C 29.6in /  1003.7hPa North 4.2mph /  6.8km/h 10.1mph /  16.3km/h 92.4% 0in /  0.0mm 14 W/m2
17:54 46.4 °F /  8 °C 44.2 °F /  6.8 °C 29.6in /  1003.7hPa North 5mph /  8km/h 10.1mph /  16.3km/h 92% 0in /  0.0mm 9 W/m2
17:59 46.4 °F /  8 °C 44.2 °F /  6.8 °C 29.6in /  1003.7hPa North 2.6mph /  4.2km/h 7.6mph /  12.2km/h 92% 0in /  0.0mm 6 W/m2
18:04 46.6 °F /  8.1 °C 44.2 °F /  6.8 °C 29.6in /  1003.7hPa North 1.4mph /  2.3km/h 4.9mph /  7.9km/h 91.2% 0in /  0.0mm 3 W/m2
18:09 46.6 °F /  8.1 °C 44.4 °F /  6.9 °C 29.6in /  1003.4hPa NNE 0.7mph /  1.1km/h 7.6mph /  12.2km/h 91.8% 0in /  0.0mm 2 W/m2
18:14 46.6 °F /  8.1 °C 44.2 °F /  6.8 °C 29.6in /  1003.7hPa NNW 0.7mph /  1.2km/h 7.6mph /  12.2km/h 91.4% 0in /  0.0mm 0 W/m2
18:19 46.6 °F /  8.1 °C 44.1 °F /  6.7 °C 29.6in /  1003.7hPa NNE 1.2mph /  2km/h 4.9mph /  7.9km/h 91.2% 0in /  0.0mm 0 W/m2
18:24 46.2 °F /  7.9 °C 44.1 °F /  6.7 °C 29.6in /  1003.7hPa North 0.5mph /  0.8km/h 4.9mph /  7.9km/h 92.3% 0in /  0.0mm 0 W/m2
18:29 46.2 °F /  7.9 °C 44.4 °F /  6.9 °C 29.6in /  1003.7hPa Calm   4.9mph /  7.9km/h 93.7% 0in /  0.0mm 0 W/m2
18:34 46.2 °F /  7.9 °C 44.8 °F /  7.1 °C 29.6in /  1003.7hPa Calm     94.9% 0in /  0.0mm 0 W/m2
18:39 46 °F /  7.8 °C 44.8 °F /  7.1 °C 29.6in /  1003.7hPa Calm     95.7% 0in /  0.0mm 0 W/m2
18:44 45.5 °F /  7.5 °C 44.2 °F /  6.8 °C 29.6in /  1003.7hPa Calm     95.6% 0in /  0.0mm 0 W/m2
18:49 45.5 °F /  7.5 °C 44.4 °F /  6.9 °C 29.6in /  1003.7hPa Calm     96.1% 0in /  0.0mm 0 W/m2
18:54 45.5 °F /  7.5 °C 45 °F /  7.2 °C 29.6in /  1003.7hPa Calm     97.4% 0in /  0.0mm 0 W/m2
18:59 45.3 °F /  7.4 °C 45.1 °F /  7.3 °C 29.6in /  1003.7hPa Calm     98.6% 0in /  0.0mm 0 W/m2
19:04 44.8 °F /  7.1 °C 44.6 °F /  7 °C 29.6in /  1003.7hPa Calm     99% 0in /  0.0mm 0 W/m2
19:09 44.8 °F /  7.1 °C 44.6 °F /  7 °C 29.6in /  1003.7hPa Calm     99% 0in /  0.0mm 0 W/m2
19:14 44.8 °F /  7.1 °C 44.6 °F /  7 °C 29.6in /  1003.7hPa Calm     99% 0in /  0.0mm 0 W/m2
19:19 44.8 °F /  7.1 °C 44.6 °F /  7 °C 29.7in /  1004.1hPa Calm   2.5mph /  4km/h 99% 0in /  0.0mm 0 W/m2
19:24 45 °F /  7.2 °C 44.4 °F /  6.9 °C 29.6in /  1003.7hPa NE 1.7mph /  2.7km/h 7.6mph /  12.2km/h 98.1% 0in /  0.0mm 0 W/m2
19:29 45 °F /  7.2 °C 43.9 °F /  6.6 °C 29.7in /  1004.1hPa NNE 1.4mph /  2.2km/h 7.6mph /  12.2km/h 95.7% 0in /  0.0mm 0 W/m2
19:34 45.1 °F /  7.3 °C 43.3 °F /  6.3 °C 29.7in /  1004.1hPa NNE 1.2mph /  2km/h 10.1mph /  16.3km/h 93.3% 0in /  0.0mm 0 W/m2
19:39 45.5 °F /  7.5 °C 43.7 °F /  6.5 °C 29.7in /  1004.1hPa NNE 3.8mph /  6.1km/h 12.5mph /  20.1km/h 93.4% 0in /  0.0mm 0 W/m2
19:44 46.4 °F /  8 °C 44.4 °F /  6.9 °C 29.7in /  1004.1hPa North 3.2mph /  5.1km/h 10.1mph /  16.3km/h 93% 0in /  0.0mm 0 W/m2
19:49 46.4 °F /  8 °C 44.6 °F /  7 °C 29.7in /  1004.1hPa NNE 4mph /  6.5km/h 10.1mph /  16.3km/h 93.2% 0in /  0.0mm 0 W/m2
19:54 46.4 °F /  8 °C 44.1 °F /  6.7 °C 29.6in /  1003.7hPa NNE 1.9mph /  3km/h 10.1mph /  16.3km/h 91.4% 0in /  0.0mm 0 W/m2
19:59 46.4 °F /  8 °C 43.9 °F /  6.6 °C 29.6in /  1003.7hPa NNE 2.8mph /  4.5km/h 10.1mph /  16.3km/h 91.1% 0in /  0.0mm 0 W/m2
20:04 46.8 °F /  8.2 °C 44.6 °F /  7 °C 29.6in /  1003.7hPa NNW 1.7mph /  2.7km/h 7.6mph /  12.2km/h 92.1% 0in /  0.0mm 0 W/m2
20:09 46.6 °F /  8.1 °C 44.6 °F /  7 °C 29.6in /  1003.7hPa North 3.7mph /  5.9km/h 12.5mph /  20.1km/h 92.7% 0in /  0.0mm 0 W/m2
20:14 46.6 °F /  8.1 °C 44.4 °F /  6.9 °C 29.6in /  1003.7hPa North 3.5mph /  5.7km/h 12.5mph /  20.1km/h 92.4% 0in /  0.0mm 0 W/m2
20:19 46.6 °F /  8.1 °C 44.8 °F /  7.1 °C 29.6in /  1003.7hPa NNW 3.4mph /  5.4km/h 12.5mph /  20.1km/h 93.3% 0in /  0.0mm 0 W/m2
20:24 46.4 °F /  8 °C 44.8 °F /  7.1 °C 29.6in /  1003.7hPa NNW 3.3mph /  5.3km/h 15mph /  24.1km/h 94.2% 0in /  0.0mm 0 W/m2
20:29 46.2 °F /  7.9 °C 44.6 °F /  7 °C 29.6in /  1003.7hPa North 2.7mph /  4.4km/h 15mph /  24.1km/h 94% 0.07in /  1.8mm 0 W/m2
20:34 46.2 °F /  7.9 °C 44.8 °F /  7.1 °C 29.6in /  1003.7hPa NNE 3.1mph /  5km/h 12.5mph /  20.1km/h 94.7% 0.07in /  1.8mm 0 W/m2
20:39 46.2 °F /  7.9 °C 44.8 °F /  7.1 °C 29.6in /  1003.7hPa NNE 4mph /  6.4km/h 12.5mph /  20.1km/h 95.2% 0.07in /  1.8mm 0 W/m2
20:44 46 °F /  7.8 °C 45 °F /  7.2 °C 29.6in /  1003.7hPa NNW 4.4mph /  7.1km/h 12.5mph /  20.1km/h 95.8% 0in /  0.0mm 0 W/m2
20:49 46 °F /  7.8 °C 44.8 °F /  7.1 °C 29.6in /  1003.4hPa North 2.7mph /  4.3km/h 12.5mph /  20.1km/h 95.7% 0in /  0.0mm 0 W/m2
20:54 46 °F /  7.8 °C 45.1 °F /  7.3 °C 29.6in /  1003.4hPa North 3.9mph /  6.3km/h 15mph /  24.1km/h 96.6% 0in /  0.0mm 0 W/m2
20:59 46 °F /  7.8 °C 44.4 °F /  6.9 °C 29.6in /  1003.0hPa NNW 5.2mph /  8.4km/h 15mph /  24.1km/h 94% 0in /  0.0mm 0 W/m2
21:04 46.8 °F /  8.2 °C 45 °F /  7.2 °C 29.6in /  1003.0hPa North 3.2mph /  5.2km/h 12.5mph /  20.1km/h 93.6% 0in /  0.0mm 0 W/m2
21:09 46.9 °F /  8.3 °C 44.8 °F /  7.1 °C 29.6in /  1003.0hPa NNW 2.4mph /  3.8km/h 12.5mph /  20.1km/h 92.1% 0in /  0.0mm 0 W/m2
21:14 46.9 °F /  8.3 °C 44.8 °F /  7.1 °C 29.6in /  1003.0hPa NNW 3.3mph /  5.3km/h 10.1mph /  16.3km/h 91.8% 0in /  0.0mm 0 W/m2
21:19 47.1 °F /  8.4 °C 44.8 °F /  7.1 °C 29.6in /  1003.0hPa North 5.5mph /  8.8km/h 15mph /  24.1km/h 91.7% 0in /  0.0mm 0 W/m2
21:24 47.5 °F /  8.6 °C 45.1 °F /  7.3 °C 29.6in /  1003.0hPa North 2.1mph /  3.3km/h 15mph /  24.1km/h 91.7% 0in /  0.0mm 0 W/m2
21:29 47.5 °F /  8.6 °C 45 °F /  7.2 °C 29.6in /  1003.4hPa North 6.1mph /  9.8km/h 15mph /  24.1km/h 90.6% 0in /  0.0mm 0 W/m2
21:34 47.5 °F /  8.6 °C 45 °F /  7.2 °C 29.6in /  1003.0hPa NNW 4.1mph /  6.6km/h 12.5mph /  20.1km/h 91% 0in /  0.0mm 0 W/m2
21:39 47.5 °F /  8.6 °C 45 °F /  7.2 °C 29.6in /  1003.0hPa North 3.2mph /  5.1km/h 12.5mph /  20.1km/h 90.8% 0in /  0.0mm 0 W/m2
21:44 47.5 °F /  8.6 °C 44.8 °F /  7.1 °C 29.6in /  1003.0hPa NNW 4.4mph /  7.1km/h 17.4mph /  28km/h 90.1% 0in /  0.0mm 0 W/m2
21:49 47.3 °F /  8.5 °C 45 °F /  7.2 °C 29.6in /  1003.0hPa NNW 2.7mph /  4.3km/h 12.5mph /  20.1km/h 91.5% 0in /  0.0mm 0 W/m2
21:54 47.3 °F /  8.5 °C 45.3 °F /  7.4 °C 29.6in /  1003.0hPa NW 3.1mph /  5km/h 10.1mph /  16.3km/h 92.8% 0in /  0.0mm 0 W/m2
21:59 47.3 °F /  8.5 °C 45.5 °F /  7.5 °C 29.6in /  1003.0hPa North 2.2mph /  3.6km/h 10.1mph /  16.3km/h 93.6% 0in /  0.0mm 0 W/m2
22:04 46.9 °F /  8.3 °C 45 °F /  7.2 °C 29.6in /  1003.0hPa North 3.5mph /  5.7km/h 12.5mph /  20.1km/h 93% 0in /  0.0mm 0 W/m2
22:09 46.9 °F /  8.3 °C 45 °F /  7.2 °C 29.6in /  1003.0hPa NNE 1.1mph /  1.8km/h 7.6mph /  12.2km/h 93.2% 0in /  0.0mm 0 W/m2
22:14 46.8 °F /  8.2 °C 44.8 °F /  7.1 °C 29.6in /  1003.0hPa NW 1.6mph /  2.6km/h 10.1mph /  16.3km/h 92.7% 0in /  0.0mm 0 W/m2
22:19 46.9 °F /  8.3 °C 45 °F /  7.2 °C 29.6in /  1003.0hPa North 2.6mph /  4.2km/h 7.6mph /  12.2km/h 92.7% 0in /  0.0mm 0 W/m2
22:24 46.8 °F /  8.2 °C 45 °F /  7.2 °C 29.6in /  1003.4hPa NNE 1mph /  1.6km/h 7.6mph /  12.2km/h 93% 0in /  0.0mm 0 W/m2
22:29 46.8 °F /  8.2 °C 45 °F /  7.2 °C 29.6in /  1003.4hPa North 1.7mph /  2.8km/h 4.9mph /  7.9km/h 93.2% 0in /  0.0mm 0 W/m2
22:34 46.8 °F /  8.2 °C 45 °F /  7.2 °C 29.6in /  1003.4hPa North 1.7mph /  2.8km/h 4.9mph /  7.9km/h 93.6% 0in /  0.0mm 0 W/m2
22:39 46.8 °F /  8.2 °C 44.6 °F /  7 °C 29.6in /  1003.4hPa NNE 3mph /  4.8km/h 10.1mph /  16.3km/h 92.2% 0in /  0.0mm 0 W/m2
22:44 46.9 °F /  8.3 °C 44.6 °F /  7 °C 29.6in /  1003.4hPa NNW 0.5mph /  0.8km/h 4.9mph /  7.9km/h 91.9% 0in /  0.0mm 0 W/m2
22:49 46.9 °F /  8.3 °C 46.6 °F /  8.1 °C 29.6in /  1003.4hPa Calm     98.4% 0in /  0.0mm 0 W/m2
22:54 46.6 °F /  8.1 °C 46.4 °F /  8 °C 29.6in /  1003.4hPa Calm     99% 0in /  0.0mm 0 W/m2
22:59 46.4 °F /  8 °C 46.2 °F /  7.9 °C 29.6in /  1003.0hPa Calm     99% 0in /  0.0mm 0 W/m2
23:04 46.4 °F /  8 °C 44.8 °F /  7.1 °C 29.6in /  1003.0hPa NNW 0.2mph /  0.4km/h 4.9mph /  7.9km/h 94.6% 0in /  0.0mm 0 W/m2
23:09 46.6 °F /  8.1 °C 44.6 °F /  7 °C 29.6in /  1003.0hPa NW 0.2mph /  0.3km/h 4.9mph /  7.9km/h 93% 0in /  0.0mm 0 W/m2
23:14 46.6 °F /  8.1 °C 44.6 °F /  7 °C 29.6in /  1003.0hPa Calm   4.9mph /  7.9km/h 92.9% 0in /  0.0mm 0 W/m2
23:19 46.6 °F /  8.1 °C 45 °F /  7.2 °C 29.6in /  1003.0hPa Calm     94.3% 0in /  0.0mm 0 W/m2
23:24 46.2 °F /  7.9 °C 45 °F /  7.2 °C 29.6in /  1003.0hPa Calm     95.6% 0in /  0.0mm 0 W/m2
23:29 46 °F /  7.8 °C 44.2 °F /  6.8 °C 29.6in /  1003.0hPa Calm   2.5mph /  4km/h 93.4% 0in /  0.0mm 0 W/m2
23:34 46.2 °F /  7.9 °C 44.1 °F /  6.7 °C 29.6in /  1003.0hPa Calm   4.9mph /  7.9km/h 92.7% 0in /  0.0mm 0 W/m2
23:39 46.2 °F /  7.9 °C 45 °F /  7.2 °C 29.6in /  1002.7hPa Calm   4.9mph /  7.9km/h 95.2% 0in /  0.0mm 0 W/m2
23:44 45.9 °F /  7.7 °C 45.5 °F /  7.5 °C 29.6in /  1002.7hPa Calm     98.2% 0in /  0.0mm 0 W/m2
23:49 45.5 °F /  7.5 °C 45.3 °F /  7.4 °C 29.6in /  1002.7hPa Calm     99% 0.07in /  1.8mm 0 W/m2
23:54 45.3 °F /  7.4 °C 45.1 °F /  7.3 °C 29.6in /  1003.0hPa Calm     99% 0.07in /  1.8mm 0 W/m2
23:59 45.1 °F /  7.3 °C 45 °F /  7.2 °C 29.6in /  1003.0hPa Calm     99% 0.07in /  1.8mm 0 W/m2
Juneau County Weather
Compliments of Weather Underground - 2 mb